Time;durP1;ratioP1;P1;durP2;ratioP2;P2;SDS_P1;SDS_P2;PMS_P1;PMS_P2;Temp;Humidity;BMP_temperature;BMP_pressure;BME280_temperature;BME280_humidity;BME280_pressure;Samples;Min_cycle;Max_cycle;Signal;HPM_P1;HPM_P2
2022/06/27 00:01:54;;;;;;;0.00;0.00;;;;;;;;;;5056305;28;20469;-84
2022/06/27 00:04:20;;;;;;;0.00;0.00;;;;;;;;;;5058061;28;20044;-85
2022/06/27 00:06:46;;;;;;;0.00;0.00;;;;;;;;;;5041026;28;20044;-84
2022/06/27 00:09:12;;;;;;;0.00;0.00;;;;;;;;;;5057783;28;20072;-85
2022/06/27 00:11:38;;;;;;;0.00;0.00;;;;;;;;;;5057433;28;20443;-83
2022/06/27 00:14:04;;;;;;;0.00;0.00;;;;;;;;;;5057744;28;20036;-85
2022/06/27 00:16:30;;;;;;;0.00;0.00;;;;;;;;;;5057571;28;20041;-85
2022/06/27 00:18:56;;;;;;;0.00;0.00;;;;;;;;;;5058006;28;20048;-84
2022/06/27 00:21:22;;;;;;;0.00;0.00;;;;;;;;;;5057365;28;20040;-85
2022/06/27 00:23:48;;;;;;;0.40;0.10;;;;;;;;;;5057424;28;20132;-85
2022/06/27 00:26:14;;;;;;;0.00;0.00;;;;;;;;;;5057497;28;20048;-83
2022/06/27 00:28:40;;;;;;;0.00;0.00;;;;;;;;;;5040772;28;20040;-85
2022/06/27 00:31:06;;;;;;;0.00;0.00;;;;;;;;;;5057330;28;20103;-85
2022/06/27 00:33:32;;;;;;;0.00;0.00;;;;;;;;;;5057112;28;20123;-85
2022/06/27 00:35:58;;;;;;;0.00;0.00;;;;;;;;;;5057292;28;20395;-85
2022/06/27 00:38:25;;;;;;;0.00;0.00;;;;;;;;;;5040400;28;20041;-85
2022/06/27 00:40:51;;;;;;;0.00;0.00;;;;;;;;;;5057426;28;20041;-85
2022/06/27 00:43:17;;;;;;;0.00;0.00;;;;;;;;;;5074851;28;20044;-85
2022/06/27 00:45:43;;;;;;;0.00;0.00;;;;;;;;;;5056890;28;20136;-85
2022/06/27 00:48:09;;;;;;;0.00;0.00;;;;;;;;;;5057037;28;20037;-84
2022/06/27 00:50:35;;;;;;;0.00;0.00;;;;;;;;;;5056957;28;20037;-86
2022/06/27 00:53:02;;;;;;;0.00;0.00;;;;;;;;;;5040168;28;20115;-85
2022/06/27 00:55:29;;;;;;;0.00;0.00;;;;;;;;;;5056848;28;20043;-85
2022/06/27 00:57:55;;;;;;;0.00;0.00;;;;;;;;;;5056700;28;20032;-84
2022/06/27 01:00:22;;;;;;;0.00;0.00;;;;;;;;;;5040557;28;20533;-85
2022/06/27 01:02:48;;;;;;;0.00;0.00;;;;;;;;;;5056544;28;20116;-85
2022/06/27 01:05:14;;;;;;;0.00;0.00;;;;;;;;;;5056631;28;20040;-84
2022/06/27 01:07:40;;;;;;;0.00;0.00;;;;;;;;;;5056440;28;20491;-85
2022/06/27 01:10:07;;;;;;;0.00;0.00;;;;;;;;;;5040042;28;20123;-85
2022/06/27 01:12:33;;;;;;;0.00;0.00;;;;;;;;;;5055674;28;20090;-85
2022/06/27 01:15:00;;;;;;;0.00;0.00;;;;;;;;;;5074688;28;20206;-85
2022/06/27 01:17:26;;;;;;;0.00;0.00;;;;;;;;;;5039828;28;20036;-85
2022/06/27 01:19:53;;;;;;;0.00;0.00;;;;;;;;;;5039720;28;20048;-86
2022/06/27 01:22:19;;;;;;;0.00;0.00;;;;;;;;;;5056401;28;20078;-85
2022/06/27 01:24:45;;;;;;;0.00;0.00;;;;;;;;;;5056287;28;20404;-86
2022/06/27 01:27:11;;;;;;;0.00;0.00;;;;;;;;;;5039758;28;20044;-85
2022/06/27 01:29:38;;;;;;;0.00;0.00;;;;;;;;;;5056245;28;20041;-85
2022/06/27 01:32:04;;;;;;;0.00;0.00;;;;;;;;;;5055811;28;20048;-85
2022/06/27 01:34:31;;;;;;;0.00;0.00;;;;;;;;;;5055943;28;20079;-85
2022/06/27 01:36:57;;;;;;;0.00;0.00;;;;;;;;;;5056015;28;20068;-84
2022/06/27 01:39:23;;;;;;;0.00;0.00;;;;;;;;;;5055949;28;20097;-85
2022/06/27 01:41:51;;;;;;;0.00;0.00;;;;;;;;;;5056048;28;20044;-85
2022/06/27 01:44:18;;;;;;;0.00;0.00;;;;;;;;;;5055489;28;20088;-85
2022/06/27 01:46:45;;;;;;;0.00;0.00;;;;;;;;;;5055962;28;20480;-85
2022/06/27 01:49:12;;;;;;;0.00;0.00;;;;;;;;;;5055506;28;20094;-85
2022/06/27 01:51:38;;;;;;;0.00;0.00;;;;;;;;;;5055716;28;20123;-85
2022/06/27 01:54:05;;;;;;;0.00;0.00;;;;;;;;;;5055425;28;20047;-85
2022/06/27 01:56:31;;;;;;;0.00;0.00;;;;;;;;;;5055871;28;20452;-85
2022/06/27 01:58:58;;;;;;;0.00;0.00;;;;;;;;;;5055697;28;20068;-85
2022/06/27 02:01:25;;;;;;;0.00;0.00;;;;;;;;;;5055733;28;20079;-85
2022/06/27 02:03:51;;;;;;;0.00;0.00;;;;;;;;;;5038657;28;20451;-85
2022/06/27 02:06:17;;;;;;;0.00;0.00;;;;;;;;;;5055582;28;20088;-86
2022/06/27 02:08:46;;;;;;;0.00;0.00;;;;;;;;;;5038827;28;20051;-85
2022/06/27 02:11:12;;;;;;;0.00;0.00;;;;;;;;;;5038794;28;20128;-85
2022/06/27 02:13:38;;;;;;;0.00;0.00;;;;;;;;;;5055059;28;20548;-85
2022/06/27 02:16:08;;;;;;;0.00;0.00;;;;;;;;;;5055498;28;20078;-85
2022/06/27 02:18:35;;;;;;;0.00;0.00;;;;;;;;;;5055330;28;20036;-85
2022/06/27 02:21:01;;;;;;;0.00;0.00;;;;;;;;;;5055480;28;20045;-85
2022/06/27 02:23:27;;;;;;;0.00;0.00;;;;;;;;;;5055236;28;20036;-86
2022/06/27 02:25:54;;;;;;;0.00;0.00;;;;;;;;;;5072478;28;20051;-85
2022/06/27 02:28:20;;;;;;;0.00;0.00;;;;;;;;;;5038517;28;20466;-85
2022/06/27 02:30:46;;;;;;;0.00;0.00;;;;;;;;;;5055084;28;20133;-84
2022/06/27 02:33:12;;;;;;;0.00;0.00;;;;;;;;;;5054905;28;20090;-85
2022/06/27 02:35:40;;;;;;;0.00;0.00;;;;;;;;;;5055227;28;20040;-84
2022/06/27 02:38:08;;;;;;;0.00;0.00;;;;;;;;;;5055145;28;20051;-84
2022/06/27 02:40:34;;;;;;;0.00;0.00;;;;;;;;;;5054935;28;20097;-85
2022/06/27 02:43:00;;;;;;;0.00;0.00;;;;;;;;;;5054807;28;20033;-86
2022/06/27 02:45:30;;;;;;;0.00;0.00;;;;;;;;;;5038139;28;20587;-84
2022/06/27 02:47:58;;;;;;;0.10;0.00;;;;;;;;;;5038637;28;20397;-84
2022/06/27 02:50:25;;;;;;;0.00;0.00;;;;;;;;;;5038255;28;20067;-85
2022/06/27 02:52:53;;;;;;;0.00;0.00;;;;;;;;;;5038321;28;20097;-84
2022/06/27 02:55:22;;;;;;;0.00;0.00;;;;;;;;;;5054698;28;20048;-85
2022/06/27 02:57:51;;;;;;;0.00;0.00;;;;;;;;;;5038321;28;20387;-83
2022/06/27 03:00:17;;;;;;;0.10;0.10;;;;;;;;;;5054677;28;20036;-84
2022/06/27 03:02:46;;;;;;;0.00;0.00;;;;;;;;;;5071909;28;20465;-85
2022/06/27 03:05:12;;;;;;;0.00;0.00;;;;;;;;;;5054503;28;20048;-85
2022/06/27 03:07:39;;;;;;;0.32;0.00;;;;;;;;;;5055002;28;20365;-85
2022/06/27 03:10:06;;;;;;;0.00;0.00;;;;;;;;;;5054539;28;20127;-85
2022/06/27 03:12:32;;;;;;;0.00;0.00;;;;;;;;;;5054682;28;20045;-85
2022/06/27 03:14:58;;;;;;;0.00;0.00;;;;;;;;;;5054419;28;20045;-84
2022/06/27 03:17:24;;;;;;;0.00;0.00;;;;;;;;;;5072607;28;20090;-86
2022/06/27 03:19:50;;;;;;;0.00;0.00;;;;;;;;;;5054858;28;20378;-85
2022/06/27 03:22:16;;;;;;;0.00;0.00;;;;;;;;;;5054590;28;20041;-85
2022/06/27 03:24:42;;;;;;;0.10;0.00;;;;;;;;;;5054238;28;20040;-85
2022/06/27 03:27:10;;;;;;;0.00;0.00;;;;;;;;;;5054861;28;20518;-84
2022/06/27 03:29:36;;;;;;;0.00;0.00;;;;;;;;;;5037704;28;20040;-85
2022/06/27 03:32:02;;;;;;;0.00;0.00;;;;;;;;;;5054465;28;20507;-85
2022/06/27 03:34:28;;;;;;;0.00;0.00;;;;;;;;;;5072412;28;20075;-85
2022/06/27 03:36:54;;;;;;;0.00;0.00;;;;;;;;;;5056919;28;20044;-85
2022/06/27 03:39:20;;;;;;;0.00;0.00;;;;;;;;;;5058300;28;20123;-84
2022/06/27 03:41:46;;;;;;;0.00;0.00;;;;;;;;;;5058210;28;20519;-85
2022/06/27 03:44:12;;;;;;;0.00;0.00;;;;;;;;;;5057921;28;20103;-85
2022/06/27 03:46:38;;;;;;;0.00;0.00;;;;;;;;;;5041722;28;20049;-85
2022/06/27 03:51:50;;;;;;;0.22;0.00;;;;;;;;;;5058135;28;20044;-84
2022/06/27 03:54:16;;;;;;;0.00;0.00;;;;;;;;;;5057804;28;20051;-85
2022/06/27 03:56:42;;;;;;;0.00;0.00;;;;;;;;;;5058132;28;20156;-85
2022/06/27 03:59:08;;;;;;;0.00;0.00;;;;;;;;;;5058090;28;20040;-85
2022/06/27 04:01:34;;;;;;;0.00;0.00;;;;;;;;;;5058097;28;20032;-85
2022/06/27 04:04:00;;;;;;;0.00;0.00;;;;;;;;;;5057620;28;20070;-85
2022/06/27 04:06:26;;;;;;;0.00;0.00;;;;;;;;;;5058100;28;20036;-85
2022/06/27 04:08:54;;;;;;;0.20;0.10;;;;;;;;;;5057780;28;20044;-85
2022/06/27 04:11:20;;;;;;;0.00;0.00;;;;;;;;;;5040922;28;20037;-85
2022/06/27 04:13:46;;;;;;;0.00;0.00;;;;;;;;;;5057445;28;20047;-85
2022/06/27 04:16:12;;;;;;;0.00;0.00;;;;;;;;;;5057887;28;20388;-84
2022/06/27 04:18:38;;;;;;;0.00;0.00;;;;;;;;;;5057465;28;20044;-85
2022/06/27 04:21:04;;;;;;;0.00;0.00;;;;;;;;;;5057983;28;20044;-84
2022/06/27 04:23:30;;;;;;;0.00;0.00;;;;;;;;;;5057462;28;20507;-84
2022/06/27 04:25:56;;;;;;;0.00;0.00;;;;;;;;;;5057395;28;20045;-84
2022/06/27 04:28:22;;;;;;;0.00;0.00;;;;;;;;;;5057657;28;20125;-84
2022/06/27 04:30:48;;;;;;;0.00;0.00;;;;;;;;;;5075128;28;20041;-85
2022/06/27 04:33:15;;;;;;;0.00;0.00;;;;;;;;;;5041131;28;20055;-84
2022/06/27 04:35:42;;;;;;;0.00;0.00;;;;;;;;;;5057111;28;20118;-85
2022/06/27 04:38:08;;;;;;;0.00;0.00;;;;;;;;;;5057515;28;20044;-85
2022/06/27 04:40:34;;;;;;;0.00;0.00;;;;;;;;;;5056973;28;20036;-85
2022/06/27 04:43:00;;;;;;;0.00;0.00;;;;;;;;;;5040631;28;20095;-85
2022/06/27 04:45:27;;;;;;;0.00;0.00;;;;;;;;;;5040117;28;20365;-85
2022/06/27 04:47:54;;;;;;;0.00;0.00;;;;;;;;;;5056197;28;20507;-85
2022/06/27 04:50:21;;;;;;;0.00;0.00;;;;;;;;;;5056859;28;20052;-85
2022/06/27 04:52:48;;;;;;;0.10;0.00;;;;;;;;;;5056957;28;20080;-86
2022/06/27 04:55:16;;;;;;;0.00;0.00;;;;;;;;;;5056679;28;20047;-85
2022/06/27 04:57:43;;;;;;;0.00;0.00;;;;;;;;;;5075024;28;20098;-85
2022/06/27 05:00:11;;;;;;;0.00;0.00;;;;;;;;;;5056862;28;20103;-84
2022/06/27 05:02:37;;;;;;;0.00;0.00;;;;;;;;;;5074831;28;20460;-85
2022/06/27 05:05:03;;;;;;;0.00;0.00;;;;;;;;;;5074454;28;20094;-85
2022/06/27 05:07:30;;;;;;;0.00;0.00;;;;;;;;;;5074955;28;20435;-84
2022/06/27 05:09:57;;;;;;;0.00;0.00;;;;;;;;;;5039821;28;20551;-85
2022/06/27 05:12:24;;;;;;;0.00;0.00;;;;;;;;;;5056708;28;20124;-84
2022/06/27 05:14:51;;;;;;;0.00;0.00;;;;;;;;;;5056306;28;20047;-84
2022/06/27 05:17:17;;;;;;;0.00;0.00;;;;;;;;;;5056883;28;20036;-84
2022/06/27 05:19:44;;;;;;;0.00;0.00;;;;;;;;;;5056159;28;20051;-84
2022/06/27 05:22:10;;;;;;;0.00;0.00;;;;;;;;;;5039838;28;20094;-85
2022/06/27 05:24:36;;;;;;;0.00;0.00;;;;;;;;;;5056187;28;20047;-85
2022/06/27 05:27:02;;;;;;;0.00;0.00;;;;;;;;;;5056378;28;20047;-85
2022/06/27 05:29:28;;;;;;;0.00;0.00;;;;;;;;;;5056322;28;20483;-85
2022/06/27 05:31:54;;;;;;;0.00;0.00;;;;;;;;;;5056409;28;20396;-84
2022/06/27 05:34:21;;;;;;;0.00;0.00;;;;;;;;;;5055843;28;20040;-85
2022/06/27 05:36:47;;;;;;;0.00;0.00;;;;;;;;;;5056150;28;20491;-85
2022/06/27 05:39:14;;;;;;;0.00;0.00;;;;;;;;;;5056135;28;20052;-85
2022/06/27 05:41:41;;;;;;;0.00;0.00;;;;;;;;;;5056255;28;20040;-85
2022/06/27 05:44:07;;;;;;;0.00;0.00;;;;;;;;;;5073752;28;20526;-85
2022/06/27 05:46:34;;;;;;;0.00;0.00;;;;;;;;;;5055993;28;20049;-85
2022/06/27 05:49:03;;;;;;;0.00;0.00;;;;;;;;;;5039755;28;20072;-85
2022/06/27 05:51:29;;;;;;;0.00;0.00;;;;;;;;;;5073810;28;20040;-85
2022/06/27 05:54:01;;;;;;;0.00;0.00;;;;;;;;;;5039706;28;20190;-85
2022/06/27 05:56:28;;;;;;;0.00;0.00;;;;;;;;;;5039021;28;20039;-86
2022/06/27 05:58:55;;;;;;;0.00;0.00;;;;;;;;;;5055614;28;20037;-85
2022/06/27 06:01:22;;;;;;;0.00;0.00;;;;;;;;;;5073678;28;20064;-84
2022/06/27 06:03:48;;;;;;;0.00;0.00;;;;;;;;;;5038914;28;20380;-85
2022/06/27 06:06:16;;;;;;;0.00;0.00;;;;;;;;;;5055694;28;20046;-85
2022/06/27 06:08:43;;;;;;;0.00;0.00;;;;;;;;;;5073696;28;20040;-85
2022/06/27 06:11:09;;;;;;;0.00;0.00;;;;;;;;;;5038685;28;20431;-85
2022/06/27 06:13:36;;;;;;;0.00;0.00;;;;;;;;;;5055469;28;20071;-85
2022/06/27 06:16:02;;;;;;;0.00;0.00;;;;;;;;;;5055257;28;20044;-85
2022/06/27 06:18:30;;;;;;;0.00;0.00;;;;;;;;;;5055426;28;20046;-85
2022/06/27 06:20:56;;;;;;;0.00;0.00;;;;;;;;;;5055103;28;20064;-86
2022/06/27 06:23:24;;;;;;;0.00;0.00;;;;;;;;;;5054726;28;20075;-85
2022/06/27 06:25:50;;;;;;;0.00;0.00;;;;;;;;;;5038224;28;20036;-88
2022/06/27 06:28:16;;;;;;;0.00;0.00;;;;;;;;;;5038106;28;20044;-84
2022/06/27 06:30:42;;;;;;;0.00;0.00;;;;;;;;;;5054909;28;20132;-83
2022/06/27 06:33:08;;;;;;;0.00;0.00;;;;;;;;;;5054719;28;20528;-85
2022/06/27 06:35:34;;;;;;;0.00;0.00;;;;;;;;;;5054528;28;20036;-85
2022/06/27 06:38:07;;;;;;;0.00;0.00;;;;;;;;;;5054908;28;20044;-84
2022/06/27 06:40:33;;;;;;;0.00;0.00;;;;;;;;;;5054524;28;20097;-85
2022/06/27 06:43:00;;;;;;;0.00;0.00;;;;;;;;;;5038137;28;20079;-85
2022/06/27 06:45:26;;;;;;;0.05;0.05;;;;;;;;;;5034227;28;20053;-85
2022/06/27 06:47:52;;;;;;;0.00;0.00;;;;;;;;;;5051394;28;20051;-88
2022/06/27 06:50:21;;;;;;;0.00;0.00;;;;;;;;;;5051175;28;20044;-83
2022/06/27 06:52:50;;;;;;;0.00;0.00;;;;;;;;;;5051050;28;20052;-81
2022/06/27 06:55:17;;;;;;;0.00;0.00;;;;;;;;;;5051003;28;20428;-86
2022/06/27 06:57:43;;;;;;;0.00;0.00;;;;;;;;;;5052265;28;20040;-85
2022/06/27 07:00:10;;;;;;;0.00;0.00;;;;;;;;;;5050770;28;20041;-84
2022/06/27 07:02:37;;;;;;;0.00;0.00;;;;;;;;;;5050874;28;20049;-85
2022/06/27 07:05:04;;;;;;;0.00;0.00;;;;;;;;;;5051209;28;20057;-84
2022/06/27 07:07:32;;;;;;;0.00;0.00;;;;;;;;;;5034420;28;20373;-85
2022/06/27 07:09:59;;;;;;;0.00;0.00;;;;;;;;;;5051189;28;20076;-84
2022/06/27 07:12:25;;;;;;;0.20;0.17;;;;;;;;;;5053966;28;20448;-85
2022/06/27 07:14:54;;;;;;;0.00;0.00;;;;;;;;;;5056359;28;20121;-85
2022/06/27 07:17:21;;;;;;;0.00;0.00;;;;;;;;;;5038102;28;20111;-85
2022/06/27 07:19:50;;;;;;;0.00;0.00;;;;;;;;;;5038391;28;20060;-86
2022/06/27 07:22:16;;;;;;;0.00;0.00;;;;;;;;;;5054913;28;20427;-85
2022/06/27 07:24:42;;;;;;;0.00;0.00;;;;;;;;;;5054965;28;20103;-85
2022/06/27 07:27:09;;;;;;;0.00;0.00;;;;;;;;;;5054499;28;20123;-85
2022/06/27 07:29:35;;;;;;;0.00;0.00;;;;;;;;;;5054996;28;20041;-85
2022/06/27 07:32:04;;;;;;;0.00;0.00;;;;;;;;;;5054513;28;20044;-85
2022/06/27 07:34:30;;;;;;;0.00;0.00;;;;;;;;;;5054906;28;20049;-86
2022/06/27 07:36:58;;;;;;;0.00;0.00;;;;;;;;;;5035851;28;20063;-85
2022/06/27 07:39:26;;;;;;;0.00;0.00;;;;;;;;;;5056386;28;20045;-86
2022/06/27 07:41:53;;;;;;;0.00;0.00;;;;;;;;;;5054864;28;20052;-86
2022/06/27 07:44:21;;;;;;;0.00;0.00;;;;;;;;;;5054768;28;20057;-87
2022/06/27 07:46:48;;;;;;;0.00;0.00;;;;;;;;;;5054736;28;20044;-86
2022/06/27 07:49:14;;;;;;;0.00;0.00;;;;;;;;;;5054815;28;20040;-85
2022/06/27 07:51:41;;;;;;;0.00;0.00;;;;;;;;;;5037858;28;20037;-84
2022/06/27 07:54:10;;;;;;;0.00;0.00;;;;;;;;;;5055154;28;20044;-86
2022/06/27 07:56:36;;;;;;;0.00;0.00;;;;;;;;;;5038220;28;20072;-85
2022/06/27 07:59:04;;;;;;;0.00;0.00;;;;;;;;;;5054783;28;20045;-84
2022/06/27 08:01:31;;;;;;;0.00;0.00;;;;;;;;;;5055973;28;20084;-83
2022/06/27 08:03:57;;;;;;;0.00;0.00;;;;;;;;;;5054520;28;20095;-86
2022/06/27 08:06:26;;;;;;;0.00;0.00;;;;;;;;;;5037072;28;20049;-85
2022/06/27 08:09:04;;;;;;;0.00;0.00;;;;;;;;;;5054730;28;20055;-85
2022/06/27 08:11:35;;;;;;;0.00;0.00;;;;;;;;;;5054322;28;20041;-85
2022/06/27 08:14:03;;;;;;;0.00;0.00;;;;;;;;;;5054643;28;20036;-85
2022/06/27 08:16:30;;;;;;;0.00;0.00;;;;;;;;;;5054204;28;20045;-85
2022/06/27 08:18:56;;;;;;;0.00;0.00;;;;;;;;;;5037693;28;20404;-85
2022/06/27 08:21:27;;;;;;;0.00;0.00;;;;;;;;;;5054140;28;20045;-85
2022/06/27 08:23:56;;;;;;;0.00;0.00;;;;;;;;;;5054322;28;20134;-85
2022/06/27 08:26:23;;;;;;;0.00;0.00;;;;;;;;;;5037386;28;20045;-86
2022/06/27 08:28:50;;;;;;;0.00;0.00;;;;;;;;;;5054422;28;20091;-86
2022/06/27 08:31:17;;;;;;;0.00;0.00;;;;;;;;;;5037123;28;20091;-85
2022/06/27 08:33:45;;;;;;;0.00;0.00;;;;;;;;;;5053982;28;20855;-86
2022/06/27 08:36:13;;;;;;;0.00;0.00;;;;;;;;;;5037630;28;20037;-86
2022/06/27 08:38:42;;;;;;;0.00;0.00;;;;;;;;;;5037388;28;20515;-87
2022/06/27 08:41:09;;;;;;;0.00;0.00;;;;;;;;;;5037661;28;20488;-86
2022/06/27 08:43:35;;;;;;;0.00;0.00;;;;;;;;;;5037767;28;20459;-87
2022/06/27 08:46:01;;;;;;;0.05;0.00;;;;;;;;;;5053628;28;20084;-86
2022/06/27 08:48:31;;;;;;;0.00;0.00;;;;;;;;;;5053577;28;20052;-86
2022/06/27 08:50:59;;;;;;;0.00;0.00;;;;;;;;;;5053921;28;20055;-86
2022/06/27 08:53:26;;;;;;;0.00;0.00;;;;;;;;;;5053822;28;20392;-86
2022/06/27 08:55:52;;;;;;;0.00;0.00;;;;;;;;;;5053743;28;20105;-86
2022/06/27 08:58:19;;;;;;;0.00;0.00;;;;;;;;;;5053373;28;20496;-88
2022/06/27 09:00:45;;;;;;;0.00;0.00;;;;;;;;;;5036936;28;20037;-86
2022/06/27 09:03:21;;;;;;;0.00;0.00;;;;;;;;;;5053381;28;20087;-86
2022/06/27 09:05:57;;;;;;;0.00;0.00;;;;;;;;;;5053719;28;20045;-86
2022/06/27 09:08:24;;;;;;;0.00;0.00;;;;;;;;;;5036609;28;20049;-88
2022/06/27 09:10:52;;;;;;;0.00;0.00;;;;;;;;;;5036920;28;20515;-85
2022/06/27 09:13:20;;;;;;;0.00;0.00;;;;;;;;;;5036711;28;20480;-86
2022/06/27 09:15:46;;;;;;;0.00;0.00;;;;;;;;;;5053611;28;20041;-86
2022/06/27 09:18:13;;;;;;;0.00;0.00;;;;;;;;;;5053191;28;20044;-86
2022/06/27 09:20:49;;;;;;;0.00;0.00;;;;;;;;;;5036600;28;20189;-86
2022/06/27 09:26:26;;;;;;;0.00;0.00;;;;;;;;;;5053141;28;20045;-85
2022/06/27 09:28:57;;;;;;;0.00;0.00;;;;;;;;;;5052795;28;20047;-85
2022/06/27 09:31:25;;;;;;;0.00;0.00;;;;;;;;;;5052970;28;20052;-85
2022/06/27 09:33:59;;;;;;;0.00;0.00;;;;;;;;;;5035481;28;20033;-84
2022/06/27 09:36:27;;;;;;;0.00;0.00;;;;;;;;;;5053055;28;20079;-84
2022/06/27 09:38:53;;;;;;;0.00;0.00;;;;;;;;;;5052738;28;20703;-85
2022/06/27 09:41:20;;;;;;;0.00;0.00;;;;;;;;;;5052909;28;20045;-85
2022/06/27 09:43:49;;;;;;;0.00;0.00;;;;;;;;;;5052685;28;20041;-85
2022/06/27 09:46:17;;;;;;;0.00;0.00;;;;;;;;;;5056009;28;20044;-84
2022/06/27 09:48:44;;;;;;;0.00;0.00;;;;;;;;;;5055814;28;20111;-85
2022/06/27 09:51:12;;;;;;;0.00;0.00;;;;;;;;;;5055968;28;20415;-86
2022/06/27 09:53:39;;;;;;;0.00;0.00;;;;;;;;;;5039275;28;20036;-87
2022/06/27 09:56:09;;;;;;;0.00;0.00;;;;;;;;;;5055854;28;20043;-86
2022/06/27 09:58:37;;;;;;;0.00;0.00;;;;;;;;;;5038834;28;20032;-86
2022/06/27 10:01:04;;;;;;;0.00;0.00;;;;;;;;;;5039073;28;20101;-87
2022/06/27 10:03:31;;;;;;;0.00;0.00;;;;;;;;;;5038817;28;20037;-87
2022/06/27 10:05:58;;;;;;;0.00;0.00;;;;;;;;;;5051948;28;20048;-85
2022/06/27 10:08:24;;;;;;;0.00;0.00;;;;;;;;;;5055066;28;20533;-85
2022/06/27 10:11:04;;;;;;;0.00;0.00;;;;;;;;;;5055525;28;20048;-85
2022/06/27 10:13:30;;;;;;;0.00;0.00;;;;;;;;;;5038811;28;20055;-85
2022/06/27 10:16:16;;;;;;;0.00;0.00;;;;;;;;;;5056103;28;20051;-84
2022/06/27 10:18:42;;;;;;;;;;;;;;;;;;5055665;28;20040;-84
2022/06/27 10:21:08;;;;;;;;;;;;;;;;;;5055617;28;20327;-87
2022/06/27 10:23:37;;;;;;;;;;;;;;;;;;5055517;28;19981;-84
2022/06/27 10:26:03;;;;;;;0.00;0.00;;;;;;;;;;5055231;28;19924;-86
2022/06/27 10:28:29;;;;;;;0.00;0.00;;;;;;;;;;5055056;28;20043;-84
2022/06/27 10:30:55;;;;;;;0.00;0.00;;;;;;;;;;5055318;28;20041;-86
2022/06/27 10:33:21;;;;;;;0.00;0.00;;;;;;;;;;5054912;28;20041;-85
2022/06/27 10:36:03;;;;;;;0.00;0.00;;;;;;;;;;5055301;28;20052;-85
2022/06/27 10:38:31;;;;;;;0.00;0.00;;;;;;;;;;5055131;28;20380;-85
2022/06/27 10:40:58;;;;;;;0.00;0.00;;;;;;;;;;5054999;28;20055;-85
2022/06/27 10:43:36;;;;;;;0.00;0.00;;;;;;;;;;5054934;28;20044;-86
2022/06/27 10:46:05;;;;;;;0.00;0.00;;;;;;;;;;5053931;28;20059;-86
2022/06/27 10:48:35;;;;;;;0.00;0.00;;;;;;;;;;5038115;28;20051;-86
2022/06/27 10:51:24;;;;;;;0.00;0.00;;;;;;;;;;5054793;28;20070;-85
2022/06/27 10:53:51;;;;;;;0.00;0.00;;;;;;;;;;5072746;28;20036;-85
2022/06/27 10:56:29;;;;;;;0.00;0.00;;;;;;;;;;5054863;28;20044;-85
2022/06/27 10:58:56;;;;;;;0.00;0.00;;;;;;;;;;5054665;28;20037;-85
2022/06/27 11:01:22;;;;;;;0.00;0.00;;;;;;;;;;5054764;28;20040;-85
2022/06/27 11:03:49;;;;;;;0.00;0.00;;;;;;;;;;5072744;28;20040;-85
2022/06/27 11:06:15;;;;;;;0.00;0.00;;;;;;;;;;5054737;28;20044;-85
2022/06/27 11:08:42;;;;;;;0.00;0.00;;;;;;;;;;5054554;28;20041;-85
2022/06/27 11:11:10;;;;;;;0.00;0.00;;;;;;;;;;5072770;28;20040;-83
2022/06/27 11:13:44;;;;;;;0.00;0.00;;;;;;;;;;5038031;28;20434;-85
2022/06/27 11:16:13;;;;;;;0.00;0.00;;;;;;;;;;5037930;28;20036;-90
2022/06/27 11:18:45;;;;;;;0.00;0.00;;;;;;;;;;5054674;28;20084;-86
2022/06/27 11:21:12;;;;;;;0.00;0.00;;;;;;;;;;5054702;28;20506;-88
2022/06/27 11:23:47;;;;;;;0.00;0.00;;;;;;;;;;5054352;28;20033;-88
2022/06/27 11:26:13;;;;;;;0.00;0.00;;;;;;;;;;5054664;28;20047;-88
2022/06/27 11:34:09;;;;;;;0.00;0.00;;;;;;;;;;5071746;28;20279;-87
2022/06/27 11:36:37;;;;;;;0.00;0.00;;;;;;;;;;5054303;28;20396;-86
2022/06/27 11:39:03;;;;;;;0.00;0.00;;;;;;;;;;5034213;28;20052;-87
2022/06/27 11:41:30;;;;;;;0.00;0.00;;;;;;;;;;5054376;28;20044;-87
2022/06/27 11:44:02;;;;;;;0.00;0.00;;;;;;;;;;5052938;28;20049;-88
2022/06/27 11:46:31;;;;;;;0.00;0.00;;;;;;;;;;5054610;28;20055;-86
2022/06/27 11:49:24;;;;;;;0.00;0.00;;;;;;;;;;5054204;28;20040;-86
2022/06/27 11:51:50;;;;;;;0.00;0.00;;;;;;;;;;5016621;28;20094;-87
2022/06/27 11:54:17;;;;;;;0.00;0.00;;;;;;;;;;5055486;28;20094;-87
2022/06/27 11:56:45;;;;;;;0.00;0.00;;;;;;;;;;5056451;28;20036;-88
2022/06/27 11:59:13;;;;;;;0.00;0.00;;;;;;;;;;5059417;28;20040;-85
2022/06/27 12:01:55;;;;;;;0.00;0.00;;;;;;;;;;5058586;28;20369;-84
2022/06/27 12:04:22;;;;;;;0.00;0.00;;;;;;;;;;5058076;28;20095;-86
2022/06/27 12:06:53;;;;;;;0.00;0.00;;;;;;;;;;5059029;28;20425;-86
2022/06/27 12:09:20;;;;;;;0.00;0.00;;;;;;;;;;5058617;28;20055;-86
2022/06/27 12:11:56;;;;;;;0.00;0.00;;;;;;;;;;5057782;28;20076;-87
2022/06/27 12:14:23;;;;;;;0.00;0.00;;;;;;;;;;5057393;28;20040;-86
2022/06/27 12:16:52;;;;;;;0.00;0.00;;;;;;;;;;5041372;28;20032;-86
2022/06/27 12:19:18;;;;;;;0.00;0.00;;;;;;;;;;5057497;28;20502;-86
2022/06/27 12:21:45;;;;;;;0.00;0.00;;;;;;;;;;5057523;28;20440;-86
2022/06/27 12:24:12;;;;;;;0.00;0.00;;;;;;;;;;5057367;28;20130;-87
2022/06/27 12:26:38;;;;;;;0.00;0.00;;;;;;;;;;5057586;28;20044;-89
2022/06/27 12:29:04;;;;;;;0.00;0.00;;;;;;;;;;5053164;28;20067;-87
2022/06/27 12:31:31;;;;;;;0.00;0.00;;;;;;;;;;5057328;28;20040;-87
2022/06/27 12:33:57;;;;;;;0.00;0.00;;;;;;;;;;5057443;28;20136;-87
2022/06/27 12:36:23;;;;;;;0.00;0.00;;;;;;;;;;5057384;28;20500;-86
2022/06/27 12:38:49;;;;;;;0.00;0.00;;;;;;;;;;5040544;28;20040;-87
2022/06/27 12:41:15;;;;;;;0.00;0.00;;;;;;;;;;5057262;28;20223;-87
2022/06/27 12:43:42;;;;;;;0.00;0.00;;;;;;;;;;5057033;28;20090;-89
2022/06/27 12:46:09;;;;;;;0.00;0.00;;;;;;;;;;5057472;28;20078;-87
2022/06/27 12:48:37;;;;;;;0.00;0.00;;;;;;;;;;5057102;28;20044;-89
2022/06/27 12:51:03;;;;;;;0.00;0.00;;;;;;;;;;5040472;28;20503;-87
2022/06/27 12:53:29;;;;;;;0.00;0.00;;;;;;;;;;5057198;28;20044;-88
2022/06/27 12:55:55;;;;;;;0.00;0.00;;;;;;;;;;5056731;28;20040;-87
2022/06/27 12:58:21;;;;;;;0.00;0.00;;;;;;;;;;5057252;28;20397;-88
2022/06/27 13:00:48;;;;;;;0.00;0.00;;;;;;;;;;5057216;28;20357;-89
2022/06/27 13:03:14;;;;;;;0.00;0.00;;;;;;;;;;5056913;28;20113;-88
2022/06/27 13:05:40;;;;;;;0.00;0.00;;;;;;;;;;5056618;28;20052;-87
2022/06/27 13:08:07;;;;;;;0.00;0.00;;;;;;;;;;5056582;28;20059;-87
2022/06/27 13:10:33;;;;;;;0.00;0.00;;;;;;;;;;5039524;28;20051;-88
2022/06/27 13:12:59;;;;;;;0.00;0.00;;;;;;;;;;5056738;28;20045;-87
2022/06/27 13:15:25;;;;;;;0.00;0.00;;;;;;;;;;5074466;28;20047;-87
2022/06/27 13:17:51;;;;;;;0.00;0.00;;;;;;;;;;5057064;28;20044;-87
2022/06/27 13:20:17;;;;;;;0.00;0.00;;;;;;;;;;5074588;28;20528;-87
2022/06/27 13:22:43;;;;;;;0.00;0.00;;;;;;;;;;5056535;28;20067;-87
2022/06/27 13:25:10;;;;;;;0.00;0.00;;;;;;;;;;5056454;28;20047;-86
2022/06/27 13:27:36;;;;;;;0.00;0.00;;;;;;;;;;5056742;28;20063;-87
2022/06/27 13:30:04;;;;;;;0.00;0.00;;;;;;;;;;5056196;28;20491;-86
2022/06/27 13:32:30;;;;;;;0.00;0.00;;;;;;;;;;5039665;28;20094;-86
2022/06/27 13:34:57;;;;;;;0.00;0.00;;;;;;;;;;5056030;28;20119;-86
2022/06/27 13:37:23;;;;;;;0.00;0.00;;;;;;;;;;5056252;28;20040;-86
2022/06/27 13:39:49;;;;;;;0.00;0.00;;;;;;;;;;5056615;28;20040;-86
2022/06/27 13:42:15;;;;;;;0.00;0.00;;;;;;;;;;5056151;28;20044;-85
2022/06/27 13:44:41;;;;;;;0.00;0.00;;;;;;;;;;5055744;28;20052;-86
2022/06/27 13:47:08;;;;;;;0.00;0.00;;;;;;;;;;5055977;28;20428;-87
2022/06/27 13:49:34;;;;;;;0.00;0.00;;;;;;;;;;5055751;28;20090;-84
2022/06/27 13:52:00;;;;;;;0.00;0.00;;;;;;;;;;5039229;28;20044;-86
2022/06/27 13:54:26;;;;;;;0.00;0.00;;;;;;;;;;5039513;28;20325;-88
2022/06/27 13:56:52;;;;;;;0.20;0.00;;;;;;;;;;5055746;28;20037;-87
2022/06/27 13:59:18;;;;;;;0.00;0.00;;;;;;;;;;5055711;28;20072;-85
2022/06/27 14:01:45;;;;;;;0.00;0.00;;;;;;;;;;5055741;28;20083;-85
2022/06/27 14:04:11;;;;;;;0.00;0.00;;;;;;;;;;5055661;28;20067;-87
2022/06/27 14:09:22;;;;;;;0.00;0.00;;;;;;;;;;5055848;28;20075;-86
2022/06/27 14:11:48;;;;;;;0.00;0.00;;;;;;;;;;5055373;28;20094;-87
2022/06/27 14:14:15;;;;;;;0.00;0.00;;;;;;;;;;5055480;28;20037;-89
2022/06/27 14:16:41;;;;;;;0.00;0.00;;;;;;;;;;5055599;28;20044;-88
2022/06/27 14:19:08;;;;;;;0.00;0.00;;;;;;;;;;5038920;28;20068;-85
2022/06/27 14:21:35;;;;;;;0.00;0.00;;;;;;;;;;5038571;28;20045;-89
2022/06/27 14:24:01;;;;;;;0.00;0.00;;;;;;;;;;5039241;28;20127;-90
2022/06/27 14:26:27;;;;;;;0.00;0.00;;;;;;;;;;5054238;28;20076;-88
2022/06/27 14:28:53;;;;;;;0.00;0.00;;;;;;;;;;5055310;28;20197;-88
2022/06/27 14:31:19;;;;;;;0.00;0.00;;;;;;;;;;5055423;28;20037;-89
2022/06/27 14:33:45;;;;;;;0.00;0.00;;;;;;;;;;5038788;28;20078;-88
2022/06/27 14:36:11;;;;;;;0.00;0.00;;;;;;;;;;5055137;28;20037;-88
2022/06/27 14:38:37;;;;;;;0.00;0.00;;;;;;;;;;5055340;28;20039;-89
2022/06/27 14:41:04;;;;;;;0.00;0.00;;;;;;;;;;5038664;28;20430;-90
2022/06/27 14:43:30;;;;;;;0.00;0.00;;;;;;;;;;5055081;28;20128;-86
2022/06/27 14:45:56;;;;;;;0.00;0.00;;;;;;;;;;5037888;28;20110;-88
2022/06/27 14:48:22;;;;;;;0.00;0.00;;;;;;;;;;5054925;28;20045;-88
2022/06/27 14:50:48;;;;;;;0.00;0.00;;;;;;;;;;5055784;28;20106;-89
2022/06/27 14:53:14;;;;;;;0.00;0.00;;;;;;;;;;5055192;28;20127;-88
2022/06/27 14:55:40;;;;;;;0.00;0.00;;;;;;;;;;5038052;28;20037;-89
2022/06/27 14:58:06;;;;;;;0.00;0.00;;;;;;;;;;5054882;28;20131;-89